Aérodrome :
LOGIN :

S'inscrire | Disclaimer

   EN    FR    IT 

 










Légende :    VFR   VFR Marginal   IFR   IFR Intensif   IFR Très Intensif
Visi : 
Plafond : 
>= 8 km
>= 3000ft
5 à 8 km
1000 à 3000 ft
1500m à 5 km
500 à 1000 ft
800 à 1500m
200 à 500 ft
< 800m
< 200 ft
Symboles :   Orages  Brouillard  Fortes neiges  Fortes précipitations  Vent > 20 kt
SIGMETs :   Divers  Orages  Givrage  Turbulence  Onde Orograph.  Cendres Volcan.







- Altitude de l'aérodrome : 472 ft
- Code IATA : GME


UMGG - Gomel

DERNIER METAR :
  • 170430Z 24006MPS CAVOK 08/05 Q1006 R28/D NOSIG

METARs EXPIRÉS :
  • 170400Z 25006MPS CAVOK 08/05 Q1006 R28/CLRD// NOSIG
  • 170330Z 25006MPS CAVOK 08/05 Q1006 R28/D NOSIG
  • 170300Z 25007MPS CAVOK 08/05 Q1006 R28/D NOSIG
  • 170200Z 25006MPS CAVOK 09/05 Q1006 R28/D NOSIG

TAF TAF UMGG
Valide du 17 à 00h jusqu'au 18 à 00h UTC


162300Z 1700/1724 27007G12MPS 9999 BKN020
TEMPO 1706/1718 26009G14MPS 2000 SHRA BKN005 BKN025CB
TEMPO 1718/1724 24006MPS 1200 SHRA BR BKN004 BKN020CB
Pas de NOTAMs connus pour ce terrain.



MET'MAP, la Météo Aéronautique d'un coup d'oeil ! - Copyright ORBIFLY Décembre 2007 - Disclaimer

ORBIFLY MET'MAP TEAM :

Programmation & Développement : Alexandra Zaïnal
Conception & Développement : Baudouin d'Aumeries
Co-Programmation & Développement : Marc-Olivier Méhu
Soutien technique & logistique : Manuel Goepfert

Contact : metmap@orbifly.com




SOURCES & CREDITS :

   NOAA